sensor_id;sensor_type;location;lat;lon;timestamp;pressure;altitude;pressure_sealevel;temperature;humidity
28004;BME280;15330;51.234;6.754;2023-03-16T00:00:38;101458.69;;;3.77;76.15
28004;BME280;15330;51.234;6.754;2023-03-16T00:03:04;101455.41;;;3.86;76.54
28004;BME280;15330;51.234;6.754;2023-03-16T00:05:29;101454.19;;;4.04;76.13
28004;BME280;15330;51.234;6.754;2023-03-16T00:07:56;101451.72;;;3.89;76.00
28004;BME280;15330;51.234;6.754;2023-03-16T00:10:21;101440.81;;;3.68;76.87
28004;BME280;15330;51.234;6.754;2023-03-16T00:12:52;101446.50;;;3.75;77.00
28004;BME280;15330;51.234;6.754;2023-03-16T00:15:18;101436.03;;;3.60;77.17
28004;BME280;15330;51.234;6.754;2023-03-16T00:17:43;101438.16;;;3.68;76.91
28004;BME280;15330;51.234;6.754;2023-03-16T00:20:15;101426.09;;;3.77;77.31
28004;BME280;15330;51.234;6.754;2023-03-16T00:22:41;101426.84;;;3.79;76.87
28004;BME280;15330;51.234;6.754;2023-03-16T00:25:08;101434.34;;;3.85;76.40
28004;BME280;15330;51.234;6.754;2023-03-16T00:27:34;101413.81;;;3.50;78.07
28004;BME280;15330;51.234;6.754;2023-03-16T00:29:59;101422.19;;;3.82;76.90
28004;BME280;15330;51.234;6.754;2023-03-16T00:32:29;101434.25;;;3.86;76.86
28004;BME280;15330;51.234;6.754;2023-03-16T00:34:58;101446.06;;;3.55;77.69
28004;BME280;15330;51.234;6.754;2023-03-16T00:37:26;101442.78;;;3.52;78.16
28004;BME280;15330;51.234;6.754;2023-03-16T00:39:52;101431.03;;;3.56;78.07
28004;BME280;15330;51.234;6.754;2023-03-16T00:42:24;101437.38;;;3.53;78.08
28004;BME280;15330;51.234;6.754;2023-03-16T00:44:55;101429.69;;;3.63;78.01
28004;BME280;15330;51.234;6.754;2023-03-16T00:47:22;101435.34;;;3.44;78.73
28004;BME280;15330;51.234;6.754;2023-03-16T00:49:48;101429.03;;;3.59;78.50
28004;BME280;15330;51.234;6.754;2023-03-16T00:52:13;101426.19;;;3.50;78.31
28004;BME280;15330;51.234;6.754;2023-03-16T00:54:40;101425.13;;;3.65;77.88
28004;BME280;15330;51.234;6.754;2023-03-16T00:57:08;101429.78;;;3.61;78.52
28004;BME280;15330;51.234;6.754;2023-03-16T00:59:33;101426.69;;;3.55;78.35
28004;BME280;15330;51.234;6.754;2023-03-16T01:02:03;101425.84;;;3.54;78.43
28004;BME280;15330;51.234;6.754;2023-03-16T01:04:28;101416.25;;;3.79;77.95
28004;BME280;15330;51.234;6.754;2023-03-16T01:06:54;101413.94;;;3.87;77.45
28004;BME280;15330;51.234;6.754;2023-03-16T01:09:19;101415.31;;;3.80;77.76
28004;BME280;15330;51.234;6.754;2023-03-16T01:11:45;101407.88;;;3.59;78.31
28004;BME280;15330;51.234;6.754;2023-03-16T01:14:14;101397.44;;;3.71;77.95
28004;BME280;15330;51.234;6.754;2023-03-16T01:16:39;101383.97;;;3.61;78.14
28004;BME280;15330;51.234;6.754;2023-03-16T01:19:05;101394.97;;;3.67;77.99
28004;BME280;15330;51.234;6.754;2023-03-16T01:21:30;101395.06;;;3.66;77.93
28004;BME280;15330;51.234;6.754;2023-03-16T01:23:57;101385.78;;;3.73;77.56
28004;BME280;15330;51.234;6.754;2023-03-16T01:26:23;101383.56;;;3.80;77.58
28004;BME280;15330;51.234;6.754;2023-03-16T01:28:49;101376.78;;;3.63;77.53
28004;BME280;15330;51.234;6.754;2023-03-16T01:31:15;101378.38;;;3.78;77.13
28004;BME280;15330;51.234;6.754;2023-03-16T01:33:41;101372.78;;;3.83;77.67
28004;BME280;15330;51.234;6.754;2023-03-16T01:36:10;101377.19;;;3.57;78.16
28004;BME280;15330;51.234;6.754;2023-03-16T01:38:36;101364.28;;;3.40;78.84
28004;BME280;15330;51.234;6.754;2023-03-16T01:41:03;101363.97;;;3.69;77.75
28004;BME280;15330;51.234;6.754;2023-03-16T01:43:30;101365.88;;;3.42;79.00
28004;BME280;15330;51.234;6.754;2023-03-16T01:51:17;101354.00;;;3.35;79.01
28004;BME280;15330;51.234;6.754;2023-03-16T01:53:54;101353.66;;;3.27;79.19
28004;BME280;15330;51.234;6.754;2023-03-16T01:56:32;101349.44;;;3.37;78.68
28004;BME280;15330;51.234;6.754;2023-03-16T01:59:01;101351.38;;;3.48;78.22
28004;BME280;15330;51.234;6.754;2023-03-16T02:01:27;101354.41;;;3.29;78.82
28004;BME280;15330;51.234;6.754;2023-03-16T02:04:07;101352.97;;;3.50;78.23
28004;BME280;15330;51.234;6.754;2023-03-16T02:06:38;101353.28;;;3.58;77.61
28004;BME280;15330;51.234;6.754;2023-03-16T02:09:04;101350.19;;;3.39;78.36
28004;BME280;15330;51.234;6.754;2023-03-16T02:11:30;101345.34;;;3.58;77.87
28004;BME280;15330;51.234;6.754;2023-03-16T02:13:57;101346.09;;;3.60;77.81
28004;BME280;15330;51.234;6.754;2023-03-16T02:16:27;101339.69;;;3.25;78.84
28004;BME280;15330;51.234;6.754;2023-03-16T02:18:55;101334.97;;;3.43;78.46
28004;BME280;15330;51.234;6.754;2023-03-16T02:21:44;101338.25;;;3.46;78.28
28004;BME280;15330;51.234;6.754;2023-03-16T02:24:06;101319.31;;;3.40;78.69
28004;BME280;15330;51.234;6.754;2023-03-16T02:32:10;101325.34;;;3.42;79.04
28004;BME280;15330;51.234;6.754;2023-03-16T02:34:36;101321.53;;;3.46;78.83
28004;BME280;15330;51.234;6.754;2023-03-16T02:37:03;101308.31;;;3.46;78.87
28004;BME280;15330;51.234;6.754;2023-03-16T02:39:29;101303.56;;;3.51;78.54
28004;BME280;15330;51.234;6.754;2023-03-16T02:41:55;101301.13;;;3.48;78.57
28004;BME280;15330;51.234;6.754;2023-03-16T02:44:24;101296.13;;;3.56;78.48
28004;BME280;15330;51.234;6.754;2023-03-16T02:46:55;101295.19;;;3.44;78.86
28004;BME280;15330;51.234;6.754;2023-03-16T02:49:33;101296.03;;;3.57;78.43
28004;BME280;15330;51.234;6.754;2023-03-16T02:52:01;101288.75;;;3.48;78.70
28004;BME280;15330;51.234;6.754;2023-03-16T02:54:27;101288.63;;;3.37;78.79
28004;BME280;15330;51.234;6.754;2023-03-16T02:56:52;101290.66;;;3.46;78.38
28004;BME280;15330;51.234;6.754;2023-03-16T02:59:17;101282.31;;;3.52;78.42
28004;BME280;15330;51.234;6.754;2023-03-16T03:01:43;101278.47;;;3.56;78.13
28004;BME280;15330;51.234;6.754;2023-03-16T03:04:11;101282.84;;;3.32;78.86
28004;BME280;15330;51.234;6.754;2023-03-16T03:06:37;101279.31;;;3.44;78.03
28004;BME280;15330;51.234;6.754;2023-03-16T03:09:03;101261.16;;;3.52;78.09
28004;BME280;15330;51.234;6.754;2023-03-16T03:11:29;101254.06;;;3.53;77.91
28004;BME280;15330;51.234;6.754;2023-03-16T03:13:55;101262.41;;;3.47;78.23
28004;BME280;15330;51.234;6.754;2023-03-16T03:16:21;101268.63;;;3.58;77.83
28004;BME280;15330;51.234;6.754;2023-03-16T03:18:47;101267.59;;;3.61;77.58
28004;BME280;15330;51.234;6.754;2023-03-16T03:21:12;101259.13;;;3.56;77.81
28004;BME280;15330;51.234;6.754;2023-03-16T03:23:38;101262.81;;;3.66;77.70
28004;BME280;15330;51.234;6.754;2023-03-16T03:26:10;101266.31;;;3.28;78.28
28004;BME280;15330;51.234;6.754;2023-03-16T03:28:36;101257.66;;;3.52;78.07
28004;BME280;15330;51.234;6.754;2023-03-16T03:31:01;101273.94;;;3.46;77.83
28004;BME280;15330;51.234;6.754;2023-03-16T03:33:27;101259.00;;;3.45;77.93
28004;BME280;15330;51.234;6.754;2023-03-16T03:35:57;101259.66;;;3.48;77.79
28004;BME280;15330;51.234;6.754;2023-03-16T03:38:24;101287.69;;;3.51;78.01
28004;BME280;15330;51.234;6.754;2023-03-16T03:40:50;101261.34;;;3.49;77.90
28004;BME280;15330;51.234;6.754;2023-03-16T03:43:16;101255.63;;;3.55;77.45
28004;BME280;15330;51.234;6.754;2023-03-16T03:45:42;101258.91;;;3.46;77.90
28004;BME280;15330;51.234;6.754;2023-03-16T03:48:07;101259.75;;;3.59;77.51
28004;BME280;15330;51.234;6.754;2023-03-16T03:50:33;101256.47;;;3.56;77.90
28004;BME280;15330;51.234;6.754;2023-03-16T03:52:58;101258.66;;;3.75;76.90
28004;BME280;15330;51.234;6.754;2023-03-16T03:55:23;101267.47;;;3.62;77.32
28004;BME280;15330;51.234;6.754;2023-03-16T03:57:52;101264.00;;;3.37;78.22
28004;BME280;15330;51.234;6.754;2023-03-16T04:00:17;101269.28;;;3.49;77.93
28004;BME280;15330;51.234;6.754;2023-03-16T04:02:45;101272.97;;;3.47;77.84
28004;BME280;15330;51.234;6.754;2023-03-16T04:05:11;101259.00;;;3.57;77.61
28004;BME280;15330;51.234;6.754;2023-03-16T04:07:37;101243.78;;;3.61;77.36
28004;BME280;15330;51.234;6.754;2023-03-16T04:10:03;101254.78;;;3.55;77.24
28004;BME280;15330;51.234;6.754;2023-03-16T04:12:29;101245.69;;;3.59;77.28
28004;BME280;15330;51.234;6.754;2023-03-16T04:14:54;101255.59;;;3.68;76.96
28004;BME280;15330;51.234;6.754;2023-03-16T04:17:19;101238.06;;;3.54;77.35
28004;BME280;15330;51.234;6.754;2023-03-16T04:19:45;101243.59;;;3.51;76.91
28004;BME280;15330;51.234;6.754;2023-03-16T04:22:12;101242.47;;;3.66;77.02
28004;BME280;15330;51.234;6.754;2023-03-16T04:24:38;101242.94;;;3.60;76.93
28004;BME280;15330;51.234;6.754;2023-03-16T04:27:03;101231.50;;;3.47;76.88
28004;BME280;15330;51.234;6.754;2023-03-16T04:29:29;101228.47;;;3.41;77.34
28004;BME280;15330;51.234;6.754;2023-03-16T04:31:54;101238.41;;;3.50;77.02
28004;BME280;15330;51.234;6.754;2023-03-16T04:34:20;101230.22;;;3.65;76.82
28004;BME280;15330;51.234;6.754;2023-03-16T04:36:50;101228.31;;;3.55;77.01
28004;BME280;15330;51.234;6.754;2023-03-16T04:39:17;101234.25;;;3.58;77.03
28004;BME280;15330;51.234;6.754;2023-03-16T04:41:43;101231.22;;;3.52;76.93
28004;BME280;15330;51.234;6.754;2023-03-16T04:44:08;101220.00;;;3.36;77.57
28004;BME280;15330;51.234;6.754;2023-03-16T04:46:33;101215.53;;;3.49;78.01
28004;BME280;15330;51.234;6.754;2023-03-16T04:49:03;101216.03;;;3.54;77.51
28004;BME280;15330;51.234;6.754;2023-03-16T04:51:28;101217.25;;;3.37;77.57
28004;BME280;15330;51.234;6.754;2023-03-16T04:53:54;101216.69;;;3.45;77.85
28004;BME280;15330;51.234;6.754;2023-03-16T04:56:20;101214.59;;;3.50;77.42
28004;BME280;15330;51.234;6.754;2023-03-16T04:58:47;101217.03;;;3.53;77.38
28004;BME280;15330;51.234;6.754;2023-03-16T05:01:13;101211.28;;;3.59;77.24
28004;BME280;15330;51.234;6.754;2023-03-16T05:03:39;101211.19;;;3.60;77.64
28004;BME280;15330;51.234;6.754;2023-03-16T05:06:05;101208.56;;;3.48;78.12
28004;BME280;15330;51.234;6.754;2023-03-16T05:08:31;101198.63;;;3.39;78.31
28004;BME280;15330;51.234;6.754;2023-03-16T05:10:57;101209.38;;;3.74;77.20
28004;BME280;15330;51.234;6.754;2023-03-16T05:13:23;101210.53;;;3.57;77.73
28004;BME280;15330;51.234;6.754;2023-03-16T05:15:48;101211.94;;;3.62;77.65
28004;BME280;15330;51.234;6.754;2023-03-16T05:18:17;101206.78;;;3.85;77.70
28004;BME280;15330;51.234;6.754;2023-03-16T05:20:42;101209.22;;;3.88;77.47
28004;BME280;15330;51.234;6.754;2023-03-16T05:23:08;101203.53;;;3.68;77.51
28004;BME280;15330;51.234;6.754;2023-03-16T05:25:33;101211.75;;;3.89;77.15
28004;BME280;15330;51.234;6.754;2023-03-16T05:27:59;101214.75;;;3.72;77.31
28004;BME280;15330;51.234;6.754;2023-03-16T05:30:24;101205.72;;;3.51;78.20
28004;BME280;15330;51.234;6.754;2023-03-16T05:32:50;101213.84;;;3.60;78.23
28004;BME280;15330;51.234;6.754;2023-03-16T05:35:16;101204.41;;;3.56;78.24
28004;BME280;15330;51.234;6.754;2023-03-16T05:37:42;101203.72;;;3.42;79.18
28004;BME280;15330;51.234;6.754;2023-03-16T05:40:10;101208.56;;;3.48;78.98
28004;BME280;15330;51.234;6.754;2023-03-16T05:42:43;101203.91;;;3.51;78.88
28004;BME280;15330;51.234;6.754;2023-03-16T05:45:11;101212.22;;;3.71;78.40
28004;BME280;15330;51.234;6.754;2023-03-16T05:47:36;101210.31;;;3.73;78.37
28004;BME280;15330;51.234;6.754;2023-03-16T05:50:06;101212.25;;;3.58;78.46
28004;BME280;15330;51.234;6.754;2023-03-16T05:52:34;101215.66;;;3.47;79.25
28004;BME280;15330;51.234;6.754;2023-03-16T05:54:59;101233.19;;;3.61;79.05
28004;BME280;15330;51.234;6.754;2023-03-16T05:57:25;101208.97;;;3.54;78.93
28004;BME280;15330;51.234;6.754;2023-03-16T05:59:50;101206.09;;;3.70;78.86
28004;BME280;15330;51.234;6.754;2023-03-16T06:02:17;101201.34;;;3.62;78.89
28004;BME280;15330;51.234;6.754;2023-03-16T06:04:42;101205.03;;;3.96;78.89
28004;BME280;15330;51.234;6.754;2023-03-16T06:07:08;101208.16;;;4.14;77.67
28004;BME280;15330;51.234;6.754;2023-03-16T06:09:33;101214.22;;;3.80;78.21
28004;BME280;15330;51.234;6.754;2023-03-16T06:11:58;101209.94;;;3.90;78.50
28004;BME280;15330;51.234;6.754;2023-03-16T06:14:24;101202.25;;;3.74;79.02
28004;BME280;15330;51.234;6.754;2023-03-16T06:16:50;101204.84;;;4.23;79.01
28004;BME280;15330;51.234;6.754;2023-03-16T06:19:15;101209.81;;;4.04;77.68
28004;BME280;15330;51.234;6.754;2023-03-16T06:21:41;101211.63;;;3.91;78.31
28004;BME280;15330;51.234;6.754;2023-03-16T06:24:07;101213.72;;;3.98;77.60
28004;BME280;15330;51.234;6.754;2023-03-16T06:26:34;101220.44;;;3.79;78.28
28004;BME280;15330;51.234;6.754;2023-03-16T06:29:00;101204.44;;;3.93;78.08
28004;BME280;15330;51.234;6.754;2023-03-16T06:31:25;101215.81;;;4.06;78.17
28004;BME280;15330;51.234;6.754;2023-03-16T06:33:50;101214.19;;;3.92;77.65
28004;BME280;15330;51.234;6.754;2023-03-16T06:36:16;101224.97;;;3.89;77.83
28004;BME280;15330;51.234;6.754;2023-03-16T06:38:42;101211.00;;;3.87;77.88
28004;BME280;15330;51.234;6.754;2023-03-16T06:41:07;101223.72;;;4.19;77.25
28004;BME280;15330;51.234;6.754;2023-03-16T06:43:32;101218.44;;;4.06;77.33
28004;BME280;15330;51.234;6.754;2023-03-16T06:45:58;101231.25;;;4.12;77.18
28004;BME280;15330;51.234;6.754;2023-03-16T06:48:23;101226.06;;;4.11;77.19
28004;BME280;15330;51.234;6.754;2023-03-16T06:50:49;101224.41;;;4.33;76.43
28004;BME280;15330;51.234;6.754;2023-03-16T06:53:15;101228.56;;;4.25;76.14
28004;BME280;15330;51.234;6.754;2023-03-16T06:55:41;101239.19;;;4.12;77.06
28004;BME280;15330;51.234;6.754;2023-03-16T06:58:06;101220.91;;;4.33;76.89
28004;BME280;15330;51.234;6.754;2023-03-16T07:00:32;101220.84;;;4.46;75.70
28004;BME280;15330;51.234;6.754;2023-03-16T07:02:59;101217.13;;;4.24;76.54
28004;BME280;15330;51.234;6.754;2023-03-16T07:05:24;101225.94;;;4.25;77.13
28004;BME280;15330;51.234;6.754;2023-03-16T07:07:50;101224.22;;;4.24;76.88
28004;BME280;15330;51.234;6.754;2023-03-16T07:10:16;101231.66;;;4.42;75.71
28004;BME280;15330;51.234;6.754;2023-03-16T07:12:43;101224.44;;;4.45;76.10
28004;BME280;15330;51.234;6.754;2023-03-16T07:15:09;101238.06;;;4.27;76.80
28004;BME280;15330;51.234;6.754;2023-03-16T07:17:36;101229.84;;;4.19;77.47
28004;BME280;15330;51.234;6.754;2023-03-16T07:20:02;101228.78;;;4.22;76.89
28004;BME280;15330;51.234;6.754;2023-03-16T07:22:32;101232.22;;;4.11;77.44
28004;BME280;15330;51.234;6.754;2023-03-16T07:24:58;101235.78;;;4.23;77.87
28004;BME280;15330;51.234;6.754;2023-03-16T07:27:24;101242.94;;;4.33;76.99
28004;BME280;15330;51.234;6.754;2023-03-16T07:29:49;101243.69;;;4.47;76.80
28004;BME280;15330;51.234;6.754;2023-03-16T07:32:17;101234.56;;;4.51;76.67
28004;BME280;15330;51.234;6.754;2023-03-16T07:34:42;101235.25;;;4.41;76.88
28004;BME280;15330;51.234;6.754;2023-03-16T07:37:08;101243.84;;;4.45;76.52
28004;BME280;15330;51.234;6.754;2023-03-16T07:39:36;101242.88;;;4.81;76.03
28004;BME280;15330;51.234;6.754;2023-03-16T07:42:02;101244.94;;;4.77;76.21
28004;BME280;15330;51.234;6.754;2023-03-16T07:44:29;101235.84;;;4.69;76.37
28004;BME280;15330;51.234;6.754;2023-03-16T07:46:55;101241.25;;;4.56;76.45
28004;BME280;15330;51.234;6.754;2023-03-16T07:49:21;101242.09;;;4.57;76.40
28004;BME280;15330;51.234;6.754;2023-03-16T07:51:47;101235.81;;;4.58;76.60
28004;BME280;15330;51.234;6.754;2023-03-16T07:54:13;101228.56;;;4.84;76.17
28004;BME280;15330;51.234;6.754;2023-03-16T07:56:38;101241.34;;;4.90;76.16
28004;BME280;15330;51.234;6.754;2023-03-16T07:59:04;101237.00;;;4.77;75.94
28004;BME280;15330;51.234;6.754;2023-03-16T08:01:30;101241.38;;;5.01;75.40
28004;BME280;15330;51.234;6.754;2023-03-16T08:03:55;101236.28;;;4.87;75.58
28004;BME280;15330;51.234;6.754;2023-03-16T08:06:21;101246.63;;;4.90;75.83
28004;BME280;15330;51.234;6.754;2023-03-16T08:08:47;101239.91;;;4.86;75.42
28004;BME280;15330;51.234;6.754;2023-03-16T08:11:12;101241.84;;;4.95;75.39
28004;BME280;15330;51.234;6.754;2023-03-16T08:13:38;101230.91;;;5.10;75.22
28004;BME280;15330;51.234;6.754;2023-03-16T08:16:05;101236.72;;;5.15;75.09
28004;BME280;15330;51.234;6.754;2023-03-16T08:18:35;101227.06;;;5.26;74.65
28004;BME280;15330;51.234;6.754;2023-03-16T08:21:01;101218.75;;;5.19;74.81
28004;BME280;15330;51.234;6.754;2023-03-16T08:23:29;101209.59;;;5.34;74.48
28004;BME280;15330;51.234;6.754;2023-03-16T08:25:57;101218.41;;;5.35;74.85
28004;BME280;15330;51.234;6.754;2023-03-16T08:28:23;101210.34;;;5.47;74.35
28004;BME280;15330;51.234;6.754;2023-03-16T08:30:51;101209.09;;;5.40;74.31
28004;BME280;15330;51.234;6.754;2023-03-16T08:33:18;101210.69;;;5.54;74.22
28004;BME280;15330;51.234;6.754;2023-03-16T08:35:45;101204.06;;;5.26;74.94
28004;BME280;15330;51.234;6.754;2023-03-16T08:38:11;101221.06;;;5.35;74.69
28004;BME280;15330;51.234;6.754;2023-03-16T08:40:39;101237.94;;;5.45;74.94
28004;BME280;15330;51.234;6.754;2023-03-16T08:43:15;101239.63;;;5.46;74.96
28004;BME280;15330;51.234;6.754;2023-03-16T08:45:43;101230.94;;;5.33;75.17
28004;BME280;15330;51.234;6.754;2023-03-16T08:48:09;101223.00;;;5.66;75.89
28004;BME280;15330;51.234;6.754;2023-03-16T08:50:39;101224.28;;;5.83;74.40
28004;BME280;15330;51.234;6.754;2023-03-16T08:53:04;101230.59;;;5.60;74.86
28004;BME280;15330;51.234;6.754;2023-03-16T08:55:29;101226.59;;;5.87;74.08
28004;BME280;15330;51.234;6.754;2023-03-16T08:57:55;101231.78;;;5.78;74.11
28004;BME280;15330;51.234;6.754;2023-03-16T09:00:20;101229.88;;;5.80;74.09
28004;BME280;15330;51.234;6.754;2023-03-16T09:02:46;101230.84;;;5.90;73.54
28004;BME280;15330;51.234;6.754;2023-03-16T09:05:13;101226.38;;;5.91;73.21
28004;BME280;15330;51.234;6.754;2023-03-16T09:07:39;101216.84;;;5.88;73.94
28004;BME280;15330;51.234;6.754;2023-03-16T09:10:08;101228.06;;;5.80;74.85
28004;BME280;15330;51.234;6.754;2023-03-16T09:12:37;101225.41;;;5.80;73.83
28004;BME280;15330;51.234;6.754;2023-03-16T09:15:05;101216.09;;;5.97;73.77
28004;BME280;15330;51.234;6.754;2023-03-16T09:17:31;101224.13;;;6.18;73.18
28004;BME280;15330;51.234;6.754;2023-03-16T09:19:57;101210.44;;;6.34;73.00
28004;BME280;15330;51.234;6.754;2023-03-16T09:22:23;101209.03;;;6.30;72.34
28004;BME280;15330;51.234;6.754;2023-03-16T09:24:48;101212.22;;;6.44;71.95
28004;BME280;15330;51.234;6.754;2023-03-16T09:27:14;101200.88;;;6.42;71.89
28004;BME280;15330;51.234;6.754;2023-03-16T09:29:41;101211.03;;;6.37;72.32
28004;BME280;15330;51.234;6.754;2023-03-16T09:32:08;101212.41;;;6.32;71.54
28004;BME280;15330;51.234;6.754;2023-03-16T09:34:34;101212.31;;;6.54;72.03
28004;BME280;15330;51.234;6.754;2023-03-16T09:37:00;101204.63;;;6.92;70.72
28004;BME280;15330;51.234;6.754;2023-03-16T09:39:26;101204.50;;;6.94;70.58
28004;BME280;15330;51.234;6.754;2023-03-16T09:42:15;101192.66;;;7.08;68.85
28004;BME280;15330;51.234;6.754;2023-03-16T09:47:30;101189.38;;;7.15;69.97
28004;BME280;15330;51.234;6.754;2023-03-16T09:49:59;101182.81;;;6.57;71.76
28004;BME280;15330;51.234;6.754;2023-03-16T09:55:25;101158.22;;;6.85;69.99
28004;BME280;15330;51.234;6.754;2023-03-16T09:57:52;101155.84;;;6.82;70.65
28004;BME280;15330;51.234;6.754;2023-03-16T10:00:22;101147.03;;;6.82;70.38
28004;BME280;15330;51.234;6.754;2023-03-16T10:03:04;101153.19;;;6.82;70.31
28004;BME280;15330;51.234;6.754;2023-03-16T10:05:34;101157.72;;;6.91;69.65
28004;BME280;15330;51.234;6.754;2023-03-16T10:08:20;101147.84;;;7.03;69.57
28004;BME280;15330;51.234;6.754;2023-03-16T10:16:26;101145.03;;;7.25;68.12
28004;BME280;15330;51.234;6.754;2023-03-16T10:19:06;101126.41;;;7.25;69.00
28004;BME280;15330;51.234;6.754;2023-03-16T10:21:37;101142.09;;;7.38;68.58
28004;BME280;15330;51.234;6.754;2023-03-16T10:24:16;101149.91;;;7.70;67.77
28004;BME280;15330;51.234;6.754;2023-03-16T10:26:52;101154.09;;;7.63;68.05
28004;BME280;15330;51.234;6.754;2023-03-16T10:29:18;101157.94;;;7.40;67.55
28004;BME280;15330;51.234;6.754;2023-03-16T10:31:44;101162.78;;;7.55;67.89
28004;BME280;15330;51.234;6.754;2023-03-16T10:34:10;101168.56;;;7.70;66.78
28004;BME280;15330;51.234;6.754;2023-03-16T10:36:38;101147.44;;;7.78;66.37
28004;BME280;15330;51.234;6.754;2023-03-16T10:39:09;101144.59;;;7.80;66.57
28004;BME280;15330;51.234;6.754;2023-03-16T10:41:37;101141.16;;;8.08;65.36
28004;BME280;15330;51.234;6.754;2023-03-16T10:47:21;101119.72;;;9.04;62.08
28004;BME280;15330;51.234;6.754;2023-03-16T10:49:35;101125.25;;;8.83;62.44
28004;BME280;15330;51.234;6.754;2023-03-16T10:52:10;101116.88;;;8.69;62.63
28004;BME280;15330;51.234;6.754;2023-03-16T10:54:39;101128.38;;;8.79;62.18
28004;BME280;15330;51.234;6.754;2023-03-16T10:57:26;101110.13;;;9.21;61.37
28004;BME280;15330;51.234;6.754;2023-03-16T10:59:53;101108.06;;;10.41;58.52
28004;BME280;15330;51.234;6.754;2023-03-16T11:02:24;101095.81;;;9.67;59.85
28004;BME280;15330;51.234;6.754;2023-03-16T11:04:54;101087.84;;;9.57;60.15
28004;BME280;15330;51.234;6.754;2023-03-16T11:07:21;101096.69;;;10.39;57.44
28004;BME280;15330;51.234;6.754;2023-03-16T11:09:50;101078.69;;;11.85;53.85
28004;BME280;15330;51.234;6.754;2023-03-16T11:12:29;101091.72;;;11.71;51.74
28004;BME280;15330;51.234;6.754;2023-03-16T11:15:03;101092.31;;;12.16;51.44
28004;BME280;15330;51.234;6.754;2023-03-16T11:17:43;101086.97;;;13.28;48.50
28004;BME280;15330;51.234;6.754;2023-03-16T11:20:14;101079.22;;;15.36;43.73
28004;BME280;15330;51.234;6.754;2023-03-16T11:22:43;101099.47;;;15.32;42.33
28004;BME280;15330;51.234;6.754;2023-03-16T11:30:45;101059.47;;;15.51;41.42
28004;BME280;15330;51.234;6.754;2023-03-16T11:33:14;101052.13;;;12.95;46.96
28004;BME280;15330;51.234;6.754;2023-03-16T11:35:50;101058.44;;;13.57;46.13
28004;BME280;15330;51.234;6.754;2023-03-16T11:38:19;101061.91;;;14.57;43.44
28004;BME280;15330;51.234;6.754;2023-03-16T11:41:08;101056.13;;;13.77;44.61
28004;BME280;15330;51.234;6.754;2023-03-16T11:49:39;101039.59;;;11.08;51.91
28004;BME280;15330;51.234;6.754;2023-03-16T12:00:55;101027.88;;;11.59;52.32
28004;BME280;15330;51.234;6.754;2023-03-16T12:12:28;101003.38;;;10.27;55.12
28004;BME280;15330;51.234;6.754;2023-03-16T12:14:28;101006.56;;;10.57;54.78
28004;BME280;15330;51.234;6.754;2023-03-16T12:17:17;100998.53;;;10.31;55.42
28004;BME280;15330;51.234;6.754;2023-03-16T12:19:50;100978.41;;;10.01;55.77
28004;BME280;15330;51.234;6.754;2023-03-16T12:22:26;100979.53;;;10.16;55.96
28004;BME280;15330;51.234;6.754;2023-03-16T12:24:54;100969.28;;;10.12;56.20
28004;BME280;15330;51.234;6.754;2023-03-16T12:27:34;100985.56;;;10.01;55.87
28004;BME280;15330;51.234;6.754;2023-03-16T12:35:45;100962.06;;;10.04;56.32
28004;BME280;15330;51.234;6.754;2023-03-16T12:38:41;100962.69;;;9.80;56.24
28004;BME280;15330;51.234;6.754;2023-03-16T12:49:43;100943.88;;;10.25;55.31
28004;BME280;15330;51.234;6.754;2023-03-16T12:52:12;100916.53;;;10.14;55.86
28004;BME280;15330;51.234;6.754;2023-03-16T12:54:52;100909.44;;;10.30;55.29
28004;BME280;15330;51.234;6.754;2023-03-16T12:57:23;100918.53;;;10.38;55.06
28004;BME280;15330;51.234;6.754;2023-03-16T12:59:54;100910.97;;;10.33;55.24
28004;BME280;15330;51.234;6.754;2023-03-16T13:05:45;100905.22;;;10.54;55.34
28004;BME280;15330;51.234;6.754;2023-03-16T13:07:47;100899.03;;;10.53;54.70
28004;BME280;15330;51.234;6.754;2023-03-16T13:10:14;100888.44;;;10.78;54.81
28004;BME280;15330;51.234;6.754;2023-03-16T13:12:42;100917.31;;;10.66;54.04
28004;BME280;15330;51.234;6.754;2023-03-16T13:15:25;100901.34;;;10.90;53.82
28004;BME280;15330;51.234;6.754;2023-03-16T13:18:05;100895.75;;;10.68;54.44
28004;BME280;15330;51.234;6.754;2023-03-16T13:20:33;100886.81;;;11.01;53.49
28004;BME280;15330;51.234;6.754;2023-03-16T13:23:18;100901.84;;;10.94;53.36
28004;BME280;15330;51.234;6.754;2023-03-16T13:26:13;100900.78;;;11.61;52.23
28004;BME280;15330;51.234;6.754;2023-03-16T13:28:41;100892.88;;;11.35;52.79
28004;BME280;15330;51.234;6.754;2023-03-16T13:31:30;100896.56;;;11.43;51.69
28004;BME280;15330;51.234;6.754;2023-03-16T13:33:59;100879.50;;;11.84;51.79
28004;BME280;15330;51.234;6.754;2023-03-16T13:36:28;100881.50;;;11.98;51.56
28004;BME280;15330;51.234;6.754;2023-03-16T13:39:04;100869.47;;;11.62;52.02
28004;BME280;15330;51.234;6.754;2023-03-16T13:41:31;100870.47;;;11.69;51.66
28004;BME280;15330;51.234;6.754;2023-03-16T13:43:56;100862.78;;;11.82;51.66
28004;BME280;15330;51.234;6.754;2023-03-16T13:46:28;100852.72;;;11.60;51.90
28004;BME280;15330;51.234;6.754;2023-03-16T13:48:56;100846.00;;;11.72;51.76
28004;BME280;15330;51.234;6.754;2023-03-16T13:51:22;100831.13;;;11.61;52.09
28004;BME280;15330;51.234;6.754;2023-03-16T13:53:48;100836.66;;;11.19;52.24
28004;BME280;15330;51.234;6.754;2023-03-16T13:56:21;100845.00;;;11.32;51.51
28004;BME280;15330;51.234;6.754;2023-03-16T13:58:49;100837.63;;;11.67;51.34
28004;BME280;15330;51.234;6.754;2023-03-16T14:01:24;100827.75;;;11.75;51.94
28004;BME280;15330;51.234;6.754;2023-03-16T14:03:51;100817.84;;;11.92;51.28
28004;BME280;15330;51.234;6.754;2023-03-16T14:06:23;100808.63;;;11.95;51.37
28004;BME280;15330;51.234;6.754;2023-03-16T14:08:52;100815.16;;;12.00;51.16
28004;BME280;15330;51.234;6.754;2023-03-16T14:11:20;100828.06;;;11.97;51.25
28004;BME280;15330;51.234;6.754;2023-03-16T14:13:56;100804.97;;;11.88;51.16